Time;durP1;ratioP1;P1;durP2;ratioP2;P2;SDS_P1;SDS_P2;PMS_P1;PMS_P2;Temp;Humidity;BMP_temperature;BMP_pressure;BME280_temperature;BME280_humidity;BME280_pressure;Samples;Min_cycle;Max_cycle;Signal;HPM_P1;HPM_P2
2023/09/15 00:00:25;;;;;;;8.73;4.68;;;13.30;99.90;;;;;;4934252;29;20039;-79
2023/09/15 00:02:55;;;;;;;6.28;4.22;;;13.20;99.90;;;;;;4945109;28;20177;-78
2023/09/15 00:05:21;;;;;;;10.07;4.55;;;13.20;99.90;;;;;;4950199;28;20057;-79
2023/09/15 00:07:47;;;;;;;10.02;4.30;;;13.20;99.90;;;;;;4967367;28;20078;-78
2023/09/15 00:10:14;;;;;;;10.73;5.05;;;13.60;99.90;;;;;;4932865;28;20043;-78
2023/09/15 00:12:44;;;;;;;8.95;4.63;;;13.20;99.90;;;;;;4957509;28;20423;-78
2023/09/15 00:15:12;;;;;;;8.05;4.55;;;13.20;99.90;;;;;;4955858;28;20046;-78
2023/09/15 00:17:40;;;;;;;11.10;4.72;;;13.10;99.90;;;;;;4939160;28;20159;-78
2023/09/15 00:20:13;;;;;;;12.48;5.55;;;13.20;99.90;;;;;;4952317;28;20041;-78
2023/09/15 00:22:51;;;;;;;10.57;4.45;;;13.10;99.90;;;;;;4944769;28;20562;-79
2023/09/15 00:25:30;;;;;;;10.45;4.47;;;13.10;99.90;;;;;;4941350;28;20042;-78
2023/09/15 00:27:59;;;;;;;10.48;5.07;;;13.10;99.90;;;;;;4938540;28;20039;-78
2023/09/15 00:30:26;;;;;;;10.40;4.53;;;13.00;99.90;;;;;;4954187;28;20050;-78
2023/09/15 00:32:53;;;;;;;10.65;4.43;;;13.00;99.90;;;;;;4954851;28;20043;-78
2023/09/15 00:35:21;;;;;;;9.52;4.90;;;13.00;99.90;;;;;;4957648;28;20081;-78
2023/09/15 00:37:49;;;;;;;8.23;5.00;;;13.00;99.90;;;;;;4949033;28;20048;-78
2023/09/15 00:40:16;;;;;;;8.27;4.38;;;13.00;99.90;;;;;;4954034;28;20069;-78
2023/09/15 00:42:48;;;;;;;10.60;5.25;;;13.60;99.90;;;;;;4950228;28;20038;-78
2023/09/15 00:45:14;;;;;;;8.35;4.72;;;12.90;99.90;;;;;;4951078;28;20142;-78
2023/09/15 00:47:46;;;;;;;11.02;5.07;;;12.90;99.90;;;;;;4949943;28;20034;-79
2023/09/15 00:50:14;;;;;;;12.05;4.70;;;12.80;99.90;;;;;;4946835;28;20058;-78
2023/09/15 00:52:44;;;;;;;11.38;4.75;;;12.80;99.90;;;;;;4957045;28;20138;-78
2023/09/15 00:55:13;;;;;;;8.65;4.60;;;12.80;99.90;;;;;;4969343;28;20122;-78
2023/09/15 00:57:42;;;;;;;7.90;4.60;;;12.80;99.90;;;;;;4938719;28;20165;-79
2023/09/15 01:00:12;;;;;;;12.98;5.40;;;12.80;99.90;;;;;;4951853;28;20039;-78
2023/09/15 01:02:40;;;;;;;9.07;4.97;;;12.80;99.90;;;;;;4949303;28;20046;-78
2023/09/15 01:05:06;;;;;;;7.63;4.97;;;12.80;99.90;;;;;;4937070;28;20042;-78
2023/09/15 01:07:34;;;;;;;9.70;5.03;;;12.80;99.90;;;;;;4966043;28;20491;-78
2023/09/15 01:10:01;;;;;;;9.77;4.97;;;12.80;99.90;;;;;;4952456;28;20035;-78
2023/09/15 01:12:26;;;;;;;9.27;5.00;;;12.80;99.90;;;;;;4956092;28;20050;-78
2023/09/15 01:14:52;;;;;;;8.05;4.88;;;12.80;99.90;;;;;;4968734;28;20039;-78
2023/09/15 01:17:26;;;;;;;12.45;5.18;;;12.80;99.90;;;;;;4950592;28;20084;-78
2023/09/15 01:20:09;;;;;;;8.73;4.88;;;12.80;99.90;;;;;;4958441;28;20387;-78
2023/09/15 01:22:53;;;;;;;9.55;4.93;;;12.80;99.90;;;;;;4954954;28;20055;-78
2023/09/15 01:25:51;;;;;;;9.88;5.00;;;12.70;99.90;;;;;;4967251;28;20568;-79
2023/09/15 01:28:39;;;;;;;10.02;4.40;;;12.70;99.90;;;;;;4957277;28;20038;-78
2023/09/15 01:31:06;;;;;;;9.65;4.45;;;12.70;99.90;;;;;;4952789;28;20047;-78
2023/09/15 01:33:32;;;;;;;12.60;4.88;;;12.70;99.90;;;;;;4971935;28;20046;-78
2023/09/15 01:35:59;;;;;;;9.15;4.82;;;12.70;99.90;;;;;;4952474;28;20139;-79
2023/09/15 01:38:25;;;;;;;9.60;4.47;;;12.70;99.90;;;;;;4938115;28;20185;-79
2023/09/15 01:40:51;;;;;;;9.63;4.55;;;12.60;99.90;;;;;;4973227;28;20126;-79
2023/09/15 01:43:18;;;;;;;8.38;4.60;;;12.60;99.90;;;;;;4955007;28;20050;-79
2023/09/15 01:45:43;;;;;;;9.93;4.78;;;12.60;99.90;;;;;;4965274;28;20388;-78
2023/09/15 01:48:11;;;;;;;10.70;4.15;;;12.60;99.90;;;;;;4950690;28;20050;-78
2023/09/15 01:50:38;;;;;;;10.23;4.43;;;12.60;99.90;;;;;;4955410;28;20077;-78
2023/09/15 01:53:05;;;;;;;9.55;4.88;;;12.60;99.90;;;;;;4932258;29;20040;-78
2023/09/15 01:55:36;;;;;;;15.63;4.82;;;12.60;99.90;;;;;;4951926;28;20047;-79
2023/09/15 01:58:02;;;;;;;11.95;4.72;;;12.50;99.90;;;;;;4962458;28;20711;-79
2023/09/15 02:00:36;;;;;;;11.27;4.85;;;12.50;99.90;;;;;;4961627;28;20122;-78
2023/09/15 02:03:02;;;;;;;8.05;4.40;;;12.60;99.90;;;;;;4949934;28;20460;-78
2023/09/15 02:05:28;;;;;;;11.85;4.97;;;12.50;99.90;;;;;;4970416;28;20118;-78
2023/09/15 02:07:53;;;;;;;11.95;4.43;;;12.50;99.90;;;;;;4933530;28;20121;-78
2023/09/15 02:10:20;;;;;;;11.65;4.55;;;12.50;99.90;;;;;;4955700;28;20105;-78
2023/09/15 02:12:45;;;;;;;10.70;4.47;;;12.50;99.90;;;;;;4939243;28;20047;-78
2023/09/15 02:15:15;;;;;;;11.15;4.68;;;12.50;99.90;;;;;;4939042;28;20123;-78
2023/09/15 02:17:40;;;;;;;7.88;4.68;;;12.70;99.90;;;;;;4971254;28;20102;-78
2023/09/15 02:20:11;;;;;;;8.85;4.35;;;12.50;99.90;;;;;;4967798;28;20077;-78
2023/09/15 02:22:40;;;;;;;8.70;4.72;;;12.50;99.90;;;;;;4936877;28;20333;-78
2023/09/15 02:25:05;;;;;;;13.10;4.72;;;12.50;99.90;;;;;;4959837;28;20043;-78
2023/09/15 02:27:31;;;;;;;9.00;4.60;;;12.50;99.90;;;;;;4945879;28;20031;-78
2023/09/15 02:29:59;;;;;;;8.48;4.35;;;12.50;99.90;;;;;;4955483;28;20572;-79
2023/09/15 02:32:24;;;;;;;8.40;4.35;;;12.50;99.90;;;;;;4934683;28;20054;-79
2023/09/15 02:34:50;;;;;;;8.63;4.50;;;12.50;99.90;;;;;;4972594;28;20038;-79
2023/09/15 02:37:16;;;;;;;10.95;4.28;;;12.50;99.90;;;;;;4950360;28;20039;-79
2023/09/15 02:39:41;;;;;;;7.97;4.32;;;12.70;99.90;;;;;;4942878;28;20043;-78
2023/09/15 02:42:07;;;;;;;9.20;4.60;;;12.40;99.90;;;;;;4961638;28;20051;-78
2023/09/15 02:44:32;;;;;;;12.93;4.65;;;12.50;99.90;;;;;;4960618;28;20050;-79
2023/09/15 02:46:58;;;;;;;13.07;4.97;;;12.50;99.90;;;;;;4954996;28;20050;-79
2023/09/15 02:49:24;;;;;;;8.63;4.60;;;12.40;99.90;;;;;;4942899;28;20055;-78
2023/09/15 02:51:49;;;;;;;11.50;4.60;;;12.40;99.90;;;;;;4955873;28;20336;-78
2023/09/15 02:54:15;;;;;;;11.27;4.95;;;12.40;99.90;;;;;;4948468;28;20062;-79
2023/09/15 02:56:44;;;;;;;10.50;4.40;;;12.40;99.90;;;;;;4956134;28;20094;-78
2023/09/15 02:59:16;;;;;;;8.02;4.55;;;12.40;99.90;;;;;;4944906;28;20042;-79
2023/09/15 03:01:43;;;;;;;10.15;5.00;;;12.40;99.90;;;;;;4961102;28;20122;-78
2023/09/15 03:04:08;;;;;;;10.50;4.88;;;12.30;99.90;;;;;;4954931;28;20122;-79
2023/09/15 03:06:34;;;;;;;7.68;4.38;;;12.40;99.90;;;;;;4958098;28;20162;-78
2023/09/15 03:09:00;;;;;;;8.85;4.20;;;12.30;99.90;;;;;;4955614;28;20081;-79
2023/09/15 03:11:27;;;;;;;7.82;4.82;;;12.30;99.90;;;;;;4939012;28;20046;-78
2023/09/15 03:13:53;;;;;;;8.15;4.25;;;12.30;99.90;;;;;;4958040;28;20117;-79
2023/09/15 03:16:20;;;;;;;8.82;4.43;;;12.30;99.90;;;;;;4957882;28;20174;-79
2023/09/15 03:18:49;;;;;;;7.32;3.97;;;12.30;99.90;;;;;;4959789;28;20487;-78
2023/09/15 03:21:16;;;;;;;8.45;4.40;;;12.20;99.90;;;;;;4938795;28;20129;-79
2023/09/15 03:23:41;;;;;;;9.10;4.53;;;12.30;99.90;;;;;;4975662;28;20460;-79
2023/09/15 03:26:07;;;;;;;10.10;4.60;;;12.20;99.90;;;;;;4959009;28;20043;-78
2023/09/15 03:28:35;;;;;;;7.95;4.35;;;12.20;99.90;;;;;;4975600;28;20050;-78
2023/09/15 03:31:06;;;;;;;11.43;5.18;;;12.20;99.90;;;;;;4940940;29;20047;-78
2023/09/15 03:33:35;;;;;;;12.70;5.00;;;12.70;99.90;;;;;;4958448;28;20043;-78
2023/09/15 03:36:02;;;;;;;11.82;5.07;;;12.20;99.90;;;;;;4944083;28;20439;-78
2023/09/15 03:38:28;;;;;;;8.18;4.57;;;12.20;99.90;;;;;;4959505;28;20045;-78
2023/09/15 03:40:57;;;;;;;14.93;5.05;;;12.20;99.90;;;;;;4962102;28;20050;-78
2023/09/15 03:43:22;;;;;;;9.27;4.78;;;12.20;99.90;;;;;;4965086;28;20047;-78
2023/09/15 03:45:48;;;;;;;11.45;5.07;;;12.30;99.90;;;;;;4942105;28;20491;-78
2023/09/15 03:48:15;;;;;;;11.95;5.20;;;12.30;99.90;;;;;;4956219;28;20047;-78
2023/09/15 03:50:41;;;;;;;10.45;5.38;;;12.40;99.90;;;;;;4936100;28;20039;-78
2023/09/15 03:53:06;;;;;;;9.13;5.03;;;12.20;99.90;;;;;;4939583;28;20054;-78
2023/09/15 03:55:32;;;;;;;11.05;5.32;;;12.20;99.90;;;;;;4974008;28;20038;-78
2023/09/15 03:57:58;;;;;;;10.05;5.10;;;12.10;99.90;;;;;;4956888;28;20557;-78
2023/09/15 04:00:23;;;;;;;10.75;5.10;;;12.20;99.90;;;;;;4957593;28;20038;-78
2023/09/15 04:02:49;;;;;;;11.52;4.93;;;12.40;99.90;;;;;;4954721;28;20046;-78
2023/09/15 04:05:18;;;;;;;10.40;5.22;;;12.10;99.90;;;;;;4953070;28;20170;-78
2023/09/15 04:07:48;;;;;;;11.52;4.95;;;12.10;99.90;;;;;;4951342;28;20054;-79
2023/09/15 04:10:13;;;;;;;12.65;5.93;;;12.30;99.90;;;;;;4953273;28;20039;-78
2023/09/15 04:12:41;;;;;;;13.20;5.63;;;12.10;99.90;;;;;;4957061;28;20115;-78
2023/09/15 04:15:09;;;;;;;10.13;5.60;;;12.10;99.90;;;;;;4974841;28;20038;-78
2023/09/15 04:17:35;;;;;;;8.73;5.40;;;12.10;99.90;;;;;;4939374;28;20053;-78
2023/09/15 04:20:00;;;;;;;9.85;5.32;;;12.10;99.90;;;;;;4943847;28;20035;-78
2023/09/15 04:22:31;;;;;;;10.02;6.10;;;12.10;99.90;;;;;;4971855;28;20089;-78
2023/09/15 04:24:56;;;;;;;10.60;5.35;;;12.10;99.90;;;;;;4963925;28;20057;-78
2023/09/15 04:27:22;;;;;;;11.57;5.53;;;12.10;99.90;;;;;;4951288;28;20129;-79
2023/09/15 04:29:55;;;;;;;11.73;5.78;;;12.10;99.90;;;;;;4955438;28;20043;-78
2023/09/15 04:32:21;;;;;;;9.43;5.65;;;12.10;99.90;;;;;;4962548;28;20039;-78
2023/09/15 04:34:49;;;;;;;10.30;5.30;;;12.10;99.90;;;;;;4938032;28;20047;-78
2023/09/15 04:37:17;;;;;;;9.70;5.15;;;12.10;99.90;;;;;;4938368;28;20380;-78
2023/09/15 04:39:43;;;;;;;10.05;5.45;;;12.00;99.90;;;;;;4956962;28;20537;-78
2023/09/15 04:42:18;;;;;;;8.98;5.10;;;12.00;99.90;;;;;;4941486;28;20026;-78
2023/09/15 04:44:44;;;;;;;11.27;5.57;;;12.00;99.90;;;;;;4959648;28;20483;-78
2023/09/15 04:47:12;;;;;;;10.95;5.50;;;12.00;99.90;;;;;;4966372;28;20070;-78
2023/09/15 04:49:42;;;;;;;9.77;5.13;;;12.00;99.90;;;;;;4944191;28;20051;-78
2023/09/15 04:52:08;;;;;;;9.45;5.13;;;12.00;99.90;;;;;;4949201;28;20118;-81
2023/09/15 04:54:34;;;;;;;10.70;5.68;;;12.00;99.90;;;;;;4956133;28;20043;-77
2023/09/15 04:56:59;;;;;;;11.48;5.60;;;12.00;99.90;;;;;;4971173;28;20086;-78
2023/09/15 04:59:25;;;;;;;9.50;5.28;;;12.00;99.90;;;;;;4973847;23;20537;-80
2023/09/15 05:01:51;;;;;;;10.38;5.13;;;11.90;99.90;;;;;;4970184;28;20511;-79
2023/09/15 05:04:20;;;;;;;9.43;4.90;;;11.90;99.90;;;;;;4973728;28;20509;-79
2023/09/15 05:06:45;;;;;;;14.35;5.47;;;11.90;99.90;;;;;;4968141;28;20054;-78
2023/09/15 05:09:11;;;;;;;9.93;5.22;;;11.90;99.90;;;;;;4965038;28;20039;-80
2023/09/15 05:11:37;;;;;;;10.02;5.07;;;11.90;99.90;;;;;;4954111;28;20490;-80
2023/09/15 05:14:03;;;;;;;9.60;5.60;;;11.90;99.90;;;;;;4955392;28;20110;-80
2023/09/15 05:16:29;;;;;;;13.80;5.40;;;11.90;99.90;;;;;;4954932;28;20066;-80
2023/09/15 05:18:55;;;;;;;13.23;5.20;;;11.90;99.90;;;;;;4953536;28;20081;-81
2023/09/15 05:21:20;;;;;;;8.68;5.18;;;11.90;99.90;;;;;;4954905;28;20099;-81
2023/09/15 05:23:46;;;;;;;8.85;5.22;;;11.90;99.90;;;;;;4947537;28;20086;-79
2023/09/15 05:26:12;;;;;;;11.95;5.38;;;11.90;99.90;;;;;;4949520;28;20126;-80
2023/09/15 05:28:37;;;;;;;10.68;5.50;;;11.90;99.90;;;;;;4952252;28;20815;-82
2023/09/15 05:31:03;;;;;;;9.40;5.38;;;11.80;99.90;;;;;;4953000;28;20053;-79
2023/09/15 05:33:28;;;;;;;10.40;4.95;;;11.80;99.90;;;;;;4953862;28;20079;-80
2023/09/15 05:35:55;;;;;;;10.45;5.45;;;11.90;99.90;;;;;;4954167;28;20039;-80
2023/09/15 05:38:22;;;;;;;8.77;5.07;;;11.80;99.90;;;;;;4952495;28;20039;-84
2023/09/15 05:40:47;;;;;;;9.20;5.20;;;11.90;99.90;;;;;;4952135;28;20558;-81
2023/09/15 05:43:13;;;;;;;10.82;5.68;;;11.90;99.90;;;;;;4951207;28;20047;-79
2023/09/15 05:45:38;;;;;;;14.25;5.50;;;11.90;99.90;;;;;;4952275;28;20411;-81
2023/09/15 05:48:04;;;;;;;11.93;5.82;;;11.90;99.90;;;;;;4952391;28;20404;-80
2023/09/15 05:50:30;;;;;;;8.27;5.50;;;11.80;99.90;;;;;;4967543;28;20036;-79
2023/09/15 05:52:55;;;;;;;10.05;5.40;;;11.90;99.90;;;;;;4951924;28;20619;-79
2023/09/15 05:55:21;;;;;;;11.57;5.72;;;11.90;99.90;;;;;;4952447;28;20039;-78
2023/09/15 05:57:46;;;;;;;9.77;5.78;;;11.90;99.90;;;;;;4953252;28;20039;-79
2023/09/15 06:00:12;;;;;;;11.32;5.68;;;11.90;99.90;;;;;;4952704;28;20057;-79
2023/09/15 06:02:38;;;;;;;9.50;5.43;;;11.90;99.90;;;;;;4952589;28;20035;-79
2023/09/15 06:05:04;;;;;;;11.63;5.38;;;11.90;99.90;;;;;;4953119;28;20114;-79
2023/09/15 06:07:29;;;;;;;12.80;5.32;;;11.90;99.90;;;;;;4951598;28;20122;-78
2023/09/15 06:09:55;;;;;;;9.70;5.20;;;11.90;99.90;;;;;;4954217;28;20070;-79
2023/09/15 06:12:20;;;;;;;9.88;5.68;;;11.90;99.90;;;;;;4954020;28;20043;-79
2023/09/15 06:14:46;;;;;;;10.73;5.78;;;11.90;99.90;;;;;;4958458;28;20055;-79
2023/09/15 06:17:12;;;;;;;8.05;5.32;;;11.90;99.90;;;;;;4953128;28;20138;-79
2023/09/15 06:19:38;;;;;;;9.98;5.93;;;12.00;99.90;;;;;;4953723;28;20050;-79
2023/09/15 06:22:04;;;;;;;8.07;5.15;;;12.00;99.90;;;;;;4952516;28;20035;-82
2023/09/15 06:24:29;;;;;;;13.25;6.10;;;12.00;99.90;;;;;;4953517;29;20286;-79
2023/09/15 06:26:55;;;;;;;9.30;5.50;;;12.00;99.90;;;;;;4955529;28;20106;-79
2023/09/15 06:29:21;;;;;;;16.48;6.35;;;12.00;99.90;;;;;;4953129;28;20043;-79
2023/09/15 06:31:47;;;;;;;11.75;5.43;;;12.00;99.90;;;;;;4954138;28;20043;-79
2023/09/15 06:34:13;;;;;;;9.85;5.80;;;12.00;99.90;;;;;;4956310;28;20055;-79
2023/09/15 06:36:39;;;;;;;11.38;5.90;;;12.00;99.90;;;;;;4952691;28;20035;-79
2023/09/15 06:39:07;;;;;;;13.20;6.15;;;12.10;99.90;;;;;;4949256;28;20040;-79
2023/09/15 06:41:32;;;;;;;12.65;6.38;;;12.10;99.90;;;;;;4964319;28;20380;-79
2023/09/15 06:43:59;;;;;;;11.30;6.10;;;12.10;99.90;;;;;;4953630;28;20047;-78
2023/09/15 06:46:26;;;;;;;8.32;5.65;;;12.10;99.90;;;;;;4952672;28;20153;-79
2023/09/15 06:48:52;;;;;;;13.93;6.38;;;12.10;99.90;;;;;;4953395;28;20043;-79
2023/09/15 06:51:18;;;;;;;10.63;5.90;;;12.10;99.90;;;;;;4950477;28;20275;-79
2023/09/15 06:53:45;;;;;;;10.23;5.70;;;12.20;99.90;;;;;;4954329;28;20043;-79
2023/09/15 06:56:10;;;;;;;11.82;6.35;;;12.20;99.90;;;;;;4949929;28;20122;-78
2023/09/15 06:58:36;;;;;;;10.65;6.03;;;12.20;99.90;;;;;;4950683;28;20146;-79
2023/09/15 07:01:03;;;;;;;13.18;6.82;;;12.20;99.90;;;;;;4954364;28;20492;-79
2023/09/15 07:03:29;;;;;;;9.30;6.32;;;12.20;99.90;;;;;;4952911;28;20039;-79
2023/09/15 07:05:54;;;;;;;10.05;5.80;;;12.20;99.90;;;;;;4951253;28;20043;-79
2023/09/15 07:08:20;;;;;;;12.07;6.57;;;12.30;99.90;;;;;;4952113;29;20062;-79
2023/09/15 07:10:50;;;;;;;13.93;6.53;;;12.30;99.90;;;;;;4956250;28;20491;-79
2023/09/15 07:13:16;;;;;;;12.25;6.60;;;12.30;99.90;;;;;;4954573;28;20050;-79
2023/09/15 07:15:41;;;;;;;15.48;7.10;;;12.40;99.90;;;;;;4952189;28;20035;-79
2023/09/15 07:18:07;;;;;;;10.85;6.60;;;12.40;99.90;;;;;;4948174;28;20051;-78
2023/09/15 07:20:33;;;;;;;11.82;6.60;;;12.40;99.90;;;;;;4966082;28;20047;-79
2023/09/15 07:22:58;;;;;;;12.18;7.03;;;12.40;99.90;;;;;;4952963;28;20043;-79
2023/09/15 07:25:24;;;;;;;11.80;6.32;;;12.50;99.90;;;;;;4953790;28;20495;-79
2023/09/15 07:27:50;;;;;;;15.95;6.53;;;12.50;99.90;;;;;;4952021;28;20484;-79
2023/09/15 07:30:16;;;;;;;13.32;7.25;;;12.50;99.90;;;;;;4955910;28;20047;-79
2023/09/15 07:32:42;;;;;;;13.95;6.72;;;12.60;99.90;;;;;;4956163;28;20050;-79
2023/09/15 07:35:09;;;;;;;11.40;5.88;;;12.60;99.90;;;;;;4955531;28;20054;-79
2023/09/15 07:37:38;;;;;;;11.98;6.32;;;12.60;99.90;;;;;;4952456;28;20071;-79
2023/09/15 07:40:08;;;;;;;12.30;6.30;;;12.70;99.90;;;;;;4955815;28;20070;-79
2023/09/15 07:42:35;;;;;;;14.23;6.45;;;12.70;99.90;;;;;;4970557;28;20062;-80
2023/09/15 07:45:01;;;;;;;11.63;5.35;;;12.70;99.90;;;;;;4955361;28;20035;-80
2023/09/15 07:47:26;;;;;;;15.45;6.00;;;12.70;99.90;;;;;;4956107;28;20058;-80
2023/09/15 07:49:52;;;;;;;12.68;6.40;;;12.80;99.90;;;;;;4957598;28;20126;-80
2023/09/15 07:52:18;;;;;;;10.15;6.35;;;12.80;99.90;;;;;;4952609;28;20075;-79
2023/09/15 07:54:45;;;;;;;9.13;5.97;;;12.80;99.90;;;;;;4956182;28;20035;-80
2023/09/15 07:57:10;;;;;;;9.52;6.18;;;12.90;99.90;;;;;;4953447;28;20489;-80
2023/09/15 07:59:39;;;;;;;10.40;5.82;;;12.90;99.90;;;;;;4955398;28;20091;-79
2023/09/15 08:02:05;;;;;;;12.77;5.57;;;13.00;99.90;;;;;;4955635;28;20069;-79
2023/09/15 08:04:30;;;;;;;10.32;5.75;;;13.00;99.90;;;;;;4954233;28;20166;-79
2023/09/15 08:06:56;;;;;;;8.82;5.50;;;13.10;99.90;;;;;;4954543;28;20074;-80
2023/09/15 08:09:22;;;;;;;10.93;5.72;;;13.10;99.90;;;;;;4955683;28;20043;-80
2023/09/15 08:11:47;;;;;;;11.23;6.22;;;13.20;99.90;;;;;;4957166;28;20054;-79
2023/09/15 08:14:13;;;;;;;10.57;6.05;;;13.20;99.90;;;;;;4953316;28;20381;-80
2023/09/15 08:16:38;;;;;;;15.73;6.15;;;13.20;99.90;;;;;;4956127;28;20043;-79
2023/09/15 08:19:04;;;;;;;9.90;5.65;;;13.30;99.90;;;;;;4955855;28;20035;-80
2023/09/15 08:21:32;;;;;;;11.65;5.70;;;13.30;99.90;;;;;;4955296;28;20057;-80
2023/09/15 08:23:58;;;;;;;10.45;5.68;;;13.50;99.90;;;;;;4956313;28;20495;-80
2023/09/15 08:26:25;;;;;;;10.68;5.80;;;13.50;99.90;;;;;;4958301;28;20104;-80
2023/09/15 08:28:51;;;;;;;8.40;5.03;;;13.60;99.90;;;;;;4960410;28;20062;-79
2023/09/15 08:31:16;;;;;;;13.38;5.72;;;13.60;99.90;;;;;;4948705;28;20047;-79
2023/09/15 08:33:42;;;;;;;9.75;6.38;;;13.70;99.90;;;;;;4954653;28;20057;-79
2023/09/15 08:36:07;;;;;;;13.18;5.80;;;13.80;99.90;;;;;;4957324;28;20518;-79
2023/09/15 08:38:33;;;;;;;10.75;5.47;;;13.90;99.90;;;;;;4950824;28;20039;-79
2023/09/15 08:41:08;;;;;;;11.45;6.32;;;14.00;99.90;;;;;;4953890;28;20496;-79
2023/09/15 08:43:36;;;;;;;12.20;6.28;;;14.10;99.90;;;;;;4972104;28;20742;-80
2023/09/15 08:46:03;;;;;;;13.35;6.55;;;14.10;99.90;;;;;;4955881;28;20055;-79
2023/09/15 08:48:36;;;;;;;11.38;5.63;;;14.10;99.90;;;;;;4955277;28;20466;-79
2023/09/15 08:51:03;;;;;;;10.48;6.07;;;14.20;99.90;;;;;;4957065;28;20499;-79
2023/09/15 08:53:29;;;;;;;12.40;5.40;;;14.30;99.90;;;;;;4957618;28;20039;-83
2023/09/15 08:55:55;;;;;;;7.57;5.07;;;14.40;99.90;;;;;;4949436;28;20075;-79
2023/09/15 08:58:21;;;;;;;7.32;5.30;;;14.40;99.90;;;;;;4953257;28;20600;-80
2023/09/15 09:00:47;;;;;;;10.32;5.05;;;14.50;99.90;;;;;;4953242;28;20082;-81
2023/09/15 09:03:13;;;;;;;9.70;5.25;;;14.60;99.90;;;;;;4955393;28;20047;-79
2023/09/15 09:05:40;;;;;;;10.75;5.57;;;14.70;99.90;;;;;;4954282;28;20035;-79
2023/09/15 09:08:07;;;;;;;9.75;5.50;;;14.80;99.90;;;;;;4954203;28;20499;-79
2023/09/15 09:10:33;;;;;;;11.95;4.97;;;14.90;99.90;;;;;;4955143;28;20078;-80
2023/09/15 09:12:58;;;;;;;9.80;5.20;;;15.00;99.90;;;;;;4957273;28;20503;-79
2023/09/15 09:15:27;;;;;;;7.40;4.63;;;15.10;99.90;;;;;;4958652;28;20071;-80
2023/09/15 09:17:52;;;;;;;8.50;4.40;;;15.30;99.90;;;;;;4951471;29;20040;-78
2023/09/15 09:20:28;;;;;;;;;;;15.50;99.90;;;;;;4948212;28;20058;-79
2023/09/15 09:22:54;;;;;;;8.13;4.22;;;15.70;99.90;;;;;;4953989;28;19918;-80
2023/09/15 09:25:29;;;;;;;;;;;15.90;99.90;;;;;;4952828;29;20506;-80
2023/09/15 09:27:55;;;;;;;8.88;3.90;;;16.20;99.90;;;;;;4946832;29;19973;-79
2023/09/15 09:30:29;;;;;;;10.65;3.38;;;16.50;99.90;;;;;;4952173;28;20047;-79
2023/09/15 09:32:55;;;;;;;8.80;3.95;;;16.70;99.90;;;;;;4953799;28;20069;-79
2023/09/15 09:35:21;;;;;;;6.38;3.38;;;17.00;99.90;;;;;;4951781;28;20039;-79
2023/09/15 09:37:46;;;;;;;;;;;17.20;99.90;;;;;;4953187;28;20051;-80
2023/09/15 09:40:12;;;;;;;6.82;3.17;;;17.50;99.90;;;;;;4951485;28;19918;-80
2023/09/15 09:42:38;;;;;;;5.80;3.00;;;17.70;99.90;;;;;;4952200;28;20031;-79
2023/09/15 09:45:04;;;;;;;8.43;3.30;;;18.00;99.90;;;;;;4950342;28;20519;-79
2023/09/15 09:47:30;;;;;;;9.10;3.20;;;18.20;99.90;;;;;;4952405;28;20479;-79
2023/09/15 09:49:55;;;;;;;10.10;3.10;;;18.50;99.90;;;;;;4951596;29;20071;-79
2023/09/15 09:52:22;;;;;;;12.05;3.42;;;18.60;99.90;;;;;;4952587;28;20086;-78
2023/09/15 09:54:50;;;;;;;6.72;3.10;;;18.90;99.90;;;;;;4952090;28;20047;-79
2023/09/15 09:57:16;;;;;;;10.15;3.08;;;19.00;99.90;;;;;;4953277;28;20074;-79
2023/09/15 09:59:43;;;;;;;;;;;19.20;99.90;;;;;;4951649;28;20039;-79
2023/09/15 10:02:08;;;;;;;;;;;19.40;99.90;;;;;;4948133;28;19919;-79
2023/09/15 10:04:34;;;;;;;6.25;3.10;;;19.50;99.90;;;;;;4951992;28;19918;-79
2023/09/15 10:06:59;;;;;;;;;;;19.70;99.90;;;;;;4952045;28;20043;-80
2023/09/15 10:09:25;;;;;;;;;;;19.90;99.90;;;;;;4951946;28;19925;-79
2023/09/15 10:11:52;;;;;;;5.13;2.80;;;20.00;99.90;;;;;;4953004;28;19965;-79
2023/09/15 10:14:20;;;;;;;9.70;3.05;;;20.10;99.90;;;;;;4948395;28;20047;-79
2023/09/15 10:16:46;;;;;;;8.77;2.95;;;20.10;99.90;;;;;;4951917;28;20050;-79
2023/09/15 10:19:15;;;;;;;6.55;2.85;;;20.30;99.90;;;;;;4955080;28;20439;-79
2023/09/15 10:21:42;;;;;;;10.50;3.20;;;20.40;99.90;;;;;;4948494;28;20144;-79
2023/09/15 10:24:10;;;;;;;6.35;2.80;;;20.60;99.90;;;;;;4950835;28;20492;-80
2023/09/15 10:26:41;;;;;;;;;;;20.70;99.90;;;;;;4953014;28;20202;-79
2023/09/15 10:29:07;;;;;;;7.85;2.63;;;20.80;99.90;;;;;;4951796;28;19976;-79
2023/09/15 10:31:34;;;;;;;;;;;20.90;99.90;;;;;;4949092;28;20043;-79
2023/09/15 10:34:02;;;;;;;4.23;2.30;;;21.00;99.90;;;;;;4951799;28;19922;-80
2023/09/15 10:36:28;;;;;;;;;;;21.20;99.90;;;;;;4952302;28;20043;-79
2023/09/15 10:38:54;;;;;;;5.90;2.70;;;21.20;99.90;;;;;;4950504;28;20183;-79
2023/09/15 10:41:28;;;;;;;5.05;2.50;;;21.40;99.90;;;;;;4950261;29;20538;-79
2023/09/15 10:43:54;;;;;;;5.65;2.47;;;21.60;99.90;;;;;;4949804;28;20122;-79
2023/09/15 10:46:20;;;;;;;4.07;2.42;;;21.70;99.90;;;;;;4952750;28;20558;-80
2023/09/15 10:48:47;;;;;;;5.88;2.53;;;21.80;99.90;;;;;;4951375;28;20047;-79
2023/09/15 10:51:16;;;;;;;;;;;21.90;99.90;;;;;;4952271;28;20039;-78
2023/09/15 10:53:49;;;;;;;6.30;2.67;;;22.00;99.90;;;;;;4949271;28;19948;-79
2023/09/15 10:56:16;;;;;;;5.78;2.70;;;21.90;99.90;;;;;;4949003;28;20511;-79
2023/09/15 10:58:43;;;;;;;5.65;2.67;;;21.90;99.90;;;;;;4951028;28;20043;-80
2023/09/15 11:01:10;;;;;;;9.55;2.85;;;21.80;99.90;;;;;;5025813;23;20517;-77
2023/09/15 11:03:42;;;;;;;6.38;2.60;;;21.80;99.90;;;;;;4997018;28;20096;-77
2023/09/15 11:06:10;;;;;;;7.15;2.97;;;21.60;99.90;;;;;;4994864;28;20071;-77
2023/09/15 11:08:37;;;;;;;7.45;3.70;;;21.70;99.90;;;;;;4980829;28;20074;-77
2023/09/15 11:11:07;;;;;;;6.13;2.67;;;22.10;99.90;;;;;;4996137;28;20042;-77
2023/09/15 11:13:38;;;;;;;7.32;2.63;;;22.40;99.90;;;;;;4962345;28;20157;-78
2023/09/15 11:16:04;;;;;;;7.38;2.65;;;22.30;99.90;;;;;;4973272;28;20066;-77
2023/09/15 11:18:34;;;;;;;7.25;3.38;;;22.10;99.90;;;;;;4981232;28;20057;-77
2023/09/15 11:21:01;;;;;;;5.07;2.72;;;22.20;99.90;;;;;;4969642;28;20038;-77
2023/09/15 11:23:28;;;;;;;5.82;2.83;;;22.20;99.90;;;;;;4959521;28;20425;-77
2023/09/15 11:26:04;;;;;;;7.28;2.78;;;22.30;99.90;;;;;;4973797;28;20046;-77
2023/09/15 11:28:34;;;;;;;5.47;3.00;;;22.40;99.90;;;;;;4958636;28;20034;-77
2023/09/15 11:31:02;;;;;;;;;;;22.60;99.90;;;;;;4958868;28;20108;-78
2023/09/15 11:33:29;;;;;;;4.93;2.60;;;22.70;99.90;;;;;;4983585;28;20021;-78
2023/09/15 11:36:02;;;;;;;5.60;2.63;;;22.90;99.90;;;;;;4977824;28;20097;-78
2023/09/15 11:38:27;;;;;;;6.82;2.80;;;23.00;99.90;;;;;;4959726;28;20518;-77
2023/09/15 11:40:53;;;;;;;8.05;2.70;;;22.90;99.90;;;;;;4977939;28;20038;-77
2023/09/15 11:43:24;;;;;;;7.90;2.70;;;22.90;99.90;;;;;;4961188;28;20058;-77
2023/09/15 11:45:55;;;;;;;8.32;3.05;;;23.00;99.90;;;;;;4976985;28;20061;-77
2023/09/15 11:48:22;;;;;;;7.28;2.90;;;23.00;99.80;;;;;;4976355;28;20525;-77
2023/09/15 11:50:48;;;;;;;7.65;3.13;;;23.00;99.50;;;;;;4992962;28;20040;-77
2023/09/15 11:53:25;;;;;;;5.35;2.58;;;22.80;99.50;;;;;;4994132;28;20038;-77
2023/09/15 11:55:53;;;;;;;5.95;2.50;;;22.70;99.70;;;;;;4972819;28;20442;-77
2023/09/15 11:58:19;;;;;;;5.20;2.25;;;22.80;99.60;;;;;;4961351;28;20122;-77
2023/09/15 12:00:45;;;;;;;7.88;3.00;;;22.60;99.10;;;;;;4961103;28;20192;-77
2023/09/15 12:03:11;;;;;;;6.60;2.35;;;22.60;99.00;;;;;;4994898;28;20609;-77
2023/09/15 12:05:40;;;;;;;6.07;2.53;;;22.60;99.10;;;;;;4959013;28;20050;-77
2023/09/15 12:08:06;;;;;;;4.68;2.33;;;22.60;99.40;;;;;;4985100;28;20077;-78
2023/09/15 12:10:31;;;;;;;4.00;2.60;;;22.70;99.70;;;;;;4976707;28;20046;-78
2023/09/15 12:12:58;;;;;;;5.10;2.40;;;23.00;99.70;;;;;;4976284;28;20434;-78
2023/09/15 12:15:25;;;;;;;6.25;3.00;;;22.90;99.50;;;;;;4977920;28;20048;-78
2023/09/15 12:17:52;;;;;;;4.53;2.33;;;23.10;99.10;;;;;;4977634;28;20046;-78
2023/09/15 12:20:25;;;;;;;5.53;2.38;;;23.10;99.00;;;;;;4971180;28;20125;-79
2023/09/15 12:22:53;;;;;;;7.22;2.40;;;23.20;99.00;;;;;;4986621;28;20034;-78
2023/09/15 12:25:19;;;;;;;7.15;2.67;;;23.30;99.00;;;;;;4962442;28;20045;-79
2023/09/15 12:27:48;;;;;;;6.22;2.50;;;23.40;99.10;;;;;;4977551;28;20046;-78
2023/09/15 12:30:15;;;;;;;4.95;2.22;;;23.50;98.80;;;;;;4974509;28;20509;-79
2023/09/15 12:32:43;;;;;;;7.38;2.92;;;23.60;98.70;;;;;;4994570;28;20371;-78
2023/09/15 12:35:13;;;;;;;4.97;2.30;;;23.70;98.50;;;;;;4990485;28;20039;-79
2023/09/15 12:37:42;;;;;;;5.47;2.50;;;23.80;98.20;;;;;;4993905;28;20081;-78
2023/09/15 12:40:08;;;;;;;5.18;2.50;;;23.70;97.80;;;;;;4978275;28;20038;-79
2023/09/15 12:42:35;;;;;;;4.97;2.13;;;23.70;97.70;;;;;;4960904;28;20026;-78
2023/09/15 12:45:01;;;;;;;7.30;2.35;;;23.80;97.60;;;;;;4981965;28;20049;-78